sensor_id;sensor_type;location;lat;lon;timestamp;temperature;humidity
19258;DHT22;9763;48.780;9.212;2022-10-26T00:01:19;16.50;91.50
19258;DHT22;9763;48.780;9.212;2022-10-26T00:04:45;16.50;91.50
19258;DHT22;9763;48.780;9.212;2022-10-26T00:08:13;16.50;91.40
19258;DHT22;9763;48.780;9.212;2022-10-26T00:11:38;16.40;91.60
19258;DHT22;9763;48.780;9.212;2022-10-26T00:15:01;16.40;91.60
19258;DHT22;9763;48.780;9.212;2022-10-26T00:18:25;16.40;91.80
19258;DHT22;9763;48.780;9.212;2022-10-26T00:21:48;16.50;91.80
19258;DHT22;9763;48.780;9.212;2022-10-26T00:25:12;16.40;91.90
19258;DHT22;9763;48.780;9.212;2022-10-26T00:28:37;16.50;91.90
19258;DHT22;9763;48.780;9.212;2022-10-26T00:32:01;16.50;91.80
19258;DHT22;9763;48.780;9.212;2022-10-26T00:35:24;16.50;92.10
19258;DHT22;9763;48.780;9.212;2022-10-26T00:39:06;16.50;92.10
19258;DHT22;9763;48.780;9.212;2022-10-26T00:42:29;16.50;92.10
19258;DHT22;9763;48.780;9.212;2022-10-26T00:45:56;16.50;92.30
19258;DHT22;9763;48.780;9.212;2022-10-26T00:49:29;16.50;92.20
19258;DHT22;9763;48.780;9.212;2022-10-26T00:52:53;16.50;91.90
19258;DHT22;9763;48.780;9.212;2022-10-26T00:56:20;16.60;92.30
19258;DHT22;9763;48.780;9.212;2022-10-26T00:59:44;16.50;92.30
19258;DHT22;9763;48.780;9.212;2022-10-26T01:03:11;16.50;92.30
19258;DHT22;9763;48.780;9.212;2022-10-26T01:06:35;16.50;92.30
19258;DHT22;9763;48.780;9.212;2022-10-26T01:10:00;16.60;92.40
19258;DHT22;9763;48.780;9.212;2022-10-26T01:13:25;16.60;92.60
19258;DHT22;9763;48.780;9.212;2022-10-26T01:17:00;16.60;92.50
19258;DHT22;9763;48.780;9.212;2022-10-26T01:20:56;16.60;92.00
19258;DHT22;9763;48.780;9.212;2022-10-26T01:24:54;16.60;91.70
19258;DHT22;9763;48.780;9.212;2022-10-26T01:28:38;16.60;91.90
19258;DHT22;9763;48.780;9.212;2022-10-26T01:32:22;16.70;92.10
19258;DHT22;9763;48.780;9.212;2022-10-26T01:36:01;16.60;91.90
19258;DHT22;9763;48.780;9.212;2022-10-26T01:39:37;16.60;91.80
19258;DHT22;9763;48.780;9.212;2022-10-26T01:43:06;16.60;91.60
19258;DHT22;9763;48.780;9.212;2022-10-26T01:46:37;16.60;91.80
19258;DHT22;9763;48.780;9.212;2022-10-26T01:50:06;16.60;91.70
19258;DHT22;9763;48.780;9.212;2022-10-26T01:53:32;16.60;91.60
19258;DHT22;9763;48.780;9.212;2022-10-26T01:56:59;16.60;91.70
19258;DHT22;9763;48.780;9.212;2022-10-26T02:00:26;16.50;91.50
19258;DHT22;9763;48.780;9.212;2022-10-26T02:03:58;16.60;91.80
19258;DHT22;9763;48.780;9.212;2022-10-26T02:07:35;16.50;91.70
19258;DHT22;9763;48.780;9.212;2022-10-26T02:11:12;16.50;91.40
19258;DHT22;9763;48.780;9.212;2022-10-26T02:14:47;16.40;91.10
19258;DHT22;9763;48.780;9.212;2022-10-26T02:18:18;16.50;91.10
19258;DHT22;9763;48.780;9.212;2022-10-26T02:21:55;16.30;91.20
19258;DHT22;9763;48.780;9.212;2022-10-26T02:25:28;16.30;91.20
19258;DHT22;9763;48.780;9.212;2022-10-26T02:28:56;16.20;91.10
19258;DHT22;9763;48.780;9.212;2022-10-26T02:32:27;16.20;91.30
19258;DHT22;9763;48.780;9.212;2022-10-26T02:35:55;16.20;91.40
19258;DHT22;9763;48.780;9.212;2022-10-26T02:39:22;16.10;91.40
19258;DHT22;9763;48.780;9.212;2022-10-26T02:42:51;16.10;91.70
19258;DHT22;9763;48.780;9.212;2022-10-26T02:46:17;16.10;92.00
19258;DHT22;9763;48.780;9.212;2022-10-26T02:49:45;16.00;92.30
19258;DHT22;9763;48.780;9.212;2022-10-26T02:53:13;16.10;92.40
19258;DHT22;9763;48.780;9.212;2022-10-26T02:56:44;16.10;92.30
19258;DHT22;9763;48.780;9.212;2022-10-26T03:00:15;16.10;92.30
19258;DHT22;9763;48.780;9.212;2022-10-26T03:03:40;16.00;92.20
19258;DHT22;9763;48.780;9.212;2022-10-26T03:07:04;16.00;92.40
19258;DHT22;9763;48.780;9.212;2022-10-26T03:10:27;16.00;92.50
19258;DHT22;9763;48.780;9.212;2022-10-26T03:13:51;16.00;92.40
19258;DHT22;9763;48.780;9.212;2022-10-26T03:17:16;16.00;92.50
19258;DHT22;9763;48.780;9.212;2022-10-26T03:20:43;16.00;92.60
19258;DHT22;9763;48.780;9.212;2022-10-26T03:24:07;16.00;92.80
19258;DHT22;9763;48.780;9.212;2022-10-26T03:27:31;16.10;93.10
19258;DHT22;9763;48.780;9.212;2022-10-26T03:30:56;16.10;93.30
19258;DHT22;9763;48.780;9.212;2022-10-26T03:34:21;16.10;93.30
19258;DHT22;9763;48.780;9.212;2022-10-26T03:37:44;16.10;93.20
19258;DHT22;9763;48.780;9.212;2022-10-26T03:41:08;16.10;93.30
19258;DHT22;9763;48.780;9.212;2022-10-26T03:44:32;16.10;93.50
19258;DHT22;9763;48.780;9.212;2022-10-26T03:47:55;16.10;93.60
19258;DHT22;9763;48.780;9.212;2022-10-26T03:51:20;16.10;93.70
19258;DHT22;9763;48.780;9.212;2022-10-26T03:54:44;16.10;93.70
19258;DHT22;9763;48.780;9.212;2022-10-26T03:58:07;16.10;93.80
19258;DHT22;9763;48.780;9.212;2022-10-26T04:01:31;16.20;93.80
19258;DHT22;9763;48.780;9.212;2022-10-26T04:04:54;16.20;93.80
19258;DHT22;9763;48.780;9.212;2022-10-26T04:08:19;16.20;93.80
19258;DHT22;9763;48.780;9.212;2022-10-26T04:11:43;16.20;93.50
19258;DHT22;9763;48.780;9.212;2022-10-26T04:15:07;16.20;93.50
19258;DHT22;9763;48.780;9.212;2022-10-26T04:18:31;16.20;93.40
19258;DHT22;9763;48.780;9.212;2022-10-26T04:21:55;16.20;93.50
19258;DHT22;9763;48.780;9.212;2022-10-26T04:25:21;16.20;93.40
19258;DHT22;9763;48.780;9.212;2022-10-26T04:28:45;16.20;93.20
19258;DHT22;9763;48.780;9.212;2022-10-26T04:32:09;16.20;93.40
19258;DHT22;9763;48.780;9.212;2022-10-26T04:35:32;16.20;93.30
19258;DHT22;9763;48.780;9.212;2022-10-26T04:38:56;16.20;93.30
19258;DHT22;9763;48.780;9.212;2022-10-26T04:42:21;16.20;93.40
19258;DHT22;9763;48.780;9.212;2022-10-26T04:45:45;16.20;93.50
19258;DHT22;9763;48.780;9.212;2022-10-26T04:49:08;16.20;94.00
19258;DHT22;9763;48.780;9.212;2022-10-26T04:52:32;16.20;94.10
19258;DHT22;9763;48.780;9.212;2022-10-26T04:55:55;16.20;94.10
19258;DHT22;9763;48.780;9.212;2022-10-26T04:59:21;16.30;94.10
19258;DHT22;9763;48.780;9.212;2022-10-26T05:02:44;16.30;93.70
19258;DHT22;9763;48.780;9.212;2022-10-26T05:06:08;16.30;93.50
19258;DHT22;9763;48.780;9.212;2022-10-26T05:09:31;16.30;93.30
19258;DHT22;9763;48.780;9.212;2022-10-26T05:12:57;16.30;93.30
19258;DHT22;9763;48.780;9.212;2022-10-26T05:16:24;16.30;93.20
19258;DHT22;9763;48.780;9.212;2022-10-26T05:19:47;16.30;93.10
19258;DHT22;9763;48.780;9.212;2022-10-26T05:23:16;16.30;93.30
19258;DHT22;9763;48.780;9.212;2022-10-26T05:26:39;16.30;93.20
19258;DHT22;9763;48.780;9.212;2022-10-26T05:30:03;16.20;93.40
19258;DHT22;9763;48.780;9.212;2022-10-26T05:33:33;16.20;93.70
19258;DHT22;9763;48.780;9.212;2022-10-26T05:36:57;16.20;93.60
19258;DHT22;9763;48.780;9.212;2022-10-26T05:40:21;16.20;93.60
19258;DHT22;9763;48.780;9.212;2022-10-26T05:43:46;16.20;93.60
19258;DHT22;9763;48.780;9.212;2022-10-26T05:47:10;16.20;93.50
19258;DHT22;9763;48.780;9.212;2022-10-26T05:50:36;16.20;93.50
19258;DHT22;9763;48.780;9.212;2022-10-26T05:54:00;16.20;93.60
19258;DHT22;9763;48.780;9.212;2022-10-26T05:57:24;16.20;93.90
19258;DHT22;9763;48.780;9.212;2022-10-26T06:00:59;16.20;94.00
19258;DHT22;9763;48.780;9.212;2022-10-26T06:04:36;16.30;93.80
19258;DHT22;9763;48.780;9.212;2022-10-26T06:08:04;16.30;94.10
19258;DHT22;9763;48.780;9.212;2022-10-26T06:11:32;16.30;94.10
19258;DHT22;9763;48.780;9.212;2022-10-26T06:14:57;16.30;94.10
19258;DHT22;9763;48.780;9.212;2022-10-26T06:18:32;16.30;93.90
19258;DHT22;9763;48.780;9.212;2022-10-26T06:22:14;16.40;93.90
19258;DHT22;9763;48.780;9.212;2022-10-26T06:25:54;16.30;93.90
19258;DHT22;9763;48.780;9.212;2022-10-26T06:29:39;16.30;93.90
19258;DHT22;9763;48.780;9.212;2022-10-26T06:33:11;16.30;94.00
19258;DHT22;9763;48.780;9.212;2022-10-26T06:36:51;16.30;94.40
19258;DHT22;9763;48.780;9.212;2022-10-26T06:40:20;16.40;94.80
19258;DHT22;9763;48.780;9.212;2022-10-26T06:43:47;16.40;94.80
19258;DHT22;9763;48.780;9.212;2022-10-26T06:47:16;16.40;94.70
19258;DHT22;9763;48.780;9.212;2022-10-26T06:50:49;16.40;94.70
19258;DHT22;9763;48.780;9.212;2022-10-26T06:54:18;16.40;94.70
19258;DHT22;9763;48.780;9.212;2022-10-26T06:57:48;16.40;94.70
19258;DHT22;9763;48.780;9.212;2022-10-26T07:01:14;16.40;94.90
19258;DHT22;9763;48.780;9.212;2022-10-26T07:04:39;16.50;94.80
19258;DHT22;9763;48.780;9.212;2022-10-26T07:08:04;16.50;95.10
19258;DHT22;9763;48.780;9.212;2022-10-26T07:11:28;16.50;95.00
19258;DHT22;9763;48.780;9.212;2022-10-26T07:14:51;16.60;95.10
19258;DHT22;9763;48.780;9.212;2022-10-26T07:18:16;16.50;95.40
19258;DHT22;9763;48.780;9.212;2022-10-26T07:21:39;16.60;95.70
19258;DHT22;9763;48.780;9.212;2022-10-26T07:25:04;16.70;96.50
19258;DHT22;9763;48.780;9.212;2022-10-26T07:28:29;16.70;96.70
19258;DHT22;9763;48.780;9.212;2022-10-26T07:31:52;16.80;97.20
19258;DHT22;9763;48.780;9.212;2022-10-26T07:35:17;16.90;97.60
19258;DHT22;9763;48.780;9.212;2022-10-26T07:38:41;17.00;97.80
19258;DHT22;9763;48.780;9.212;2022-10-26T07:42:04;17.20;98.00
19258;DHT22;9763;48.780;9.212;2022-10-26T07:45:28;17.30;97.90
19258;DHT22;9763;48.780;9.212;2022-10-26T07:48:53;17.40;98.20
19258;DHT22;9763;48.780;9.212;2022-10-26T07:52:18;17.50;97.90
19258;DHT22;9763;48.780;9.212;2022-10-26T07:55:41;17.60;97.30
19258;DHT22;9763;48.780;9.212;2022-10-26T07:59:05;17.70;97.50
19258;DHT22;9763;48.780;9.212;2022-10-26T08:02:28;17.80;97.80
19258;DHT22;9763;48.780;9.212;2022-10-26T08:05:52;17.90;98.30
19258;DHT22;9763;48.780;9.212;2022-10-26T08:09:18;18.00;98.40
19258;DHT22;9763;48.780;9.212;2022-10-26T08:12:42;18.10;97.90
19258;DHT22;9763;48.780;9.212;2022-10-26T08:16:07;18.20;98.40
19258;DHT22;9763;48.780;9.212;2022-10-26T08:19:31;18.30;98.60
19258;DHT22;9763;48.780;9.212;2022-10-26T08:22:55;18.40;98.70
19258;DHT22;9763;48.780;9.212;2022-10-26T08:26:20;18.40;98.60
19258;DHT22;9763;48.780;9.212;2022-10-26T08:29:43;18.50;98.40
19258;DHT22;9763;48.780;9.212;2022-10-26T08:33:08;18.60;98.80
19258;DHT22;9763;48.780;9.212;2022-10-26T08:36:33;18.70;98.90
19258;DHT22;9763;48.780;9.212;2022-10-26T08:39:56;18.70;98.60
19258;DHT22;9763;48.780;9.212;2022-10-26T08:43:28;18.80;98.30
19258;DHT22;9763;48.780;9.212;2022-10-26T08:47:05;18.90;97.80
19258;DHT22;9763;48.780;9.212;2022-10-26T08:50:36;18.90;97.40
19258;DHT22;9763;48.780;9.212;2022-10-26T08:54:08;19.00;97.50
19258;DHT22;9763;48.780;9.212;2022-10-26T08:57:38;19.10;97.00
19258;DHT22;9763;48.780;9.212;2022-10-26T09:01:07;19.10;97.10
19258;DHT22;9763;48.780;9.212;2022-10-26T09:04:31;19.10;97.10
19258;DHT22;9763;48.780;9.212;2022-10-26T09:08:01;19.10;97.80
19258;DHT22;9763;48.780;9.212;2022-10-26T09:11:46;19.20;97.70
19258;DHT22;9763;48.780;9.212;2022-10-26T09:15:22;19.30;98.40
19258;DHT22;9763;48.780;9.212;2022-10-26T09:19:01;19.40;99.70
19258;DHT22;9763;48.780;9.212;2022-10-26T09:22:49;19.60;99.90
19258;DHT22;9763;48.780;9.212;2022-10-26T09:26:28;19.90;99.90
19258;DHT22;9763;48.780;9.212;2022-10-26T09:29:56;20.30;99.90
19258;DHT22;9763;48.780;9.212;2022-10-26T09:33:24;20.50;99.90
19258;DHT22;9763;48.780;9.212;2022-10-26T09:36:52;20.80;99.90
19258;DHT22;9763;48.780;9.212;2022-10-26T09:40:22;21.10;99.90
19258;DHT22;9763;48.780;9.212;2022-10-26T09:43:54;21.40;99.90
19258;DHT22;9763;48.780;9.212;2022-10-26T09:47:29;21.60;99.90
19258;DHT22;9763;48.780;9.212;2022-10-26T09:50:57;21.90;99.90
19258;DHT22;9763;48.780;9.212;2022-10-26T09:54:27;22.40;99.90
19258;DHT22;9763;48.780;9.212;2022-10-26T09:57:52;23.10;99.90
19258;DHT22;9763;48.780;9.212;2022-10-26T10:01:27;23.80;99.90
19258;DHT22;9763;48.780;9.212;2022-10-26T10:04:59;24.40;99.90
19258;DHT22;9763;48.780;9.212;2022-10-26T10:08:24;24.90;99.90
19258;DHT22;9763;48.780;9.212;2022-10-26T10:11:50;25.30;99.90
19258;DHT22;9763;48.780;9.212;2022-10-26T10:15:21;25.50;96.60
19258;DHT22;9763;48.780;9.212;2022-10-26T10:18:53;25.40;93.30
19258;DHT22;9763;48.780;9.212;2022-10-26T10:22:19;25.20;91.50
19258;DHT22;9763;48.780;9.212;2022-10-26T10:25:57;25.00;92.40
19258;DHT22;9763;48.780;9.212;2022-10-26T10:29:25;24.70;90.40
19258;DHT22;9763;48.780;9.212;2022-10-26T10:33:03;24.40;91.20
19258;DHT22;9763;48.780;9.212;2022-10-26T10:36:29;24.30;94.10
19258;DHT22;9763;48.780;9.212;2022-10-26T10:39:56;24.40;97.70
19258;DHT22;9763;48.780;9.212;2022-10-26T10:43:22;24.50;98.20
19258;DHT22;9763;48.780;9.212;2022-10-26T10:46:47;24.80;99.90
19258;DHT22;9763;48.780;9.212;2022-10-26T10:50:16;25.00;97.40
19258;DHT22;9763;48.780;9.212;2022-10-26T10:53:44;25.20;95.00
19258;DHT22;9763;48.780;9.212;2022-10-26T10:57:17;25.20;92.80
19258;DHT22;9763;48.780;9.212;2022-10-26T11:00:47;25.10;91.80
19258;DHT22;9763;48.780;9.212;2022-10-26T11:04:28;25.00;91.60
19258;DHT22;9763;48.780;9.212;2022-10-26T11:08:08;24.90;89.60
19258;DHT22;9763;48.780;9.212;2022-10-26T11:11:37;24.80;93.80
19258;DHT22;9763;48.780;9.212;2022-10-26T11:15:13;24.90;99.90
19258;DHT22;9763;48.780;9.212;2022-10-26T11:18:42;25.30;99.90
19258;DHT22;9763;48.780;9.212;2022-10-26T11:22:16;25.80;99.60
19258;DHT22;9763;48.780;9.212;2022-10-26T11:25:49;26.10;92.60
19258;DHT22;9763;48.780;9.212;2022-10-26T11:29:28;26.10;90.00
19258;DHT22;9763;48.780;9.212;2022-10-26T11:33:05;27.20;88.50
19258;DHT22;9763;48.780;9.212;2022-10-26T11:36:35;25.70;85.90
19258;DHT22;9763;48.780;9.212;2022-10-26T11:40:07;25.30;85.40
19258;DHT22;9763;48.780;9.212;2022-10-26T11:43:45;25.10;85.60
19258;DHT22;9763;48.780;9.212;2022-10-26T11:47:15;24.80;87.30
19258;DHT22;9763;48.780;9.212;2022-10-26T11:50:44;24.60;85.70
19258;DHT22;9763;48.780;9.212;2022-10-26T11:54:15;24.40;87.10
19258;DHT22;9763;48.780;9.212;2022-10-26T11:57:49;24.30;88.70
19258;DHT22;9763;48.780;9.212;2022-10-26T12:01:16;24.20;89.30
19258;DHT22;9763;48.780;9.212;2022-10-26T12:04:42;24.10;91.10
19258;DHT22;9763;48.780;9.212;2022-10-26T12:08:12;24.10;92.20
19258;DHT22;9763;48.780;9.212;2022-10-26T12:11:44;24.20;93.30
19258;DHT22;9763;48.780;9.212;2022-10-26T12:15:20;24.30;93.00
19258;DHT22;9763;48.780;9.212;2022-10-26T12:19:05;24.40;92.60
19258;DHT22;9763;48.780;9.212;2022-10-26T12:22:38;24.50;92.70
19258;DHT22;9763;48.780;9.212;2022-10-26T12:26:37;24.60;93.20
19258;DHT22;9763;48.780;9.212;2022-10-26T12:30:23;24.60;90.70
19258;DHT22;9763;48.780;9.212;2022-10-26T12:33:51;24.60;90.70
19258;DHT22;9763;48.780;9.212;2022-10-26T12:37:23;24.70;93.10
19258;DHT22;9763;48.780;9.212;2022-10-26T12:41:10;24.70;91.50
19258;DHT22;9763;48.780;9.212;2022-10-26T12:45:01;24.70;90.60
19258;DHT22;9763;48.780;9.212;2022-10-26T12:48:44;24.70;90.10
19258;DHT22;9763;48.780;9.212;2022-10-26T12:52:26;24.60;90.80
19258;DHT22;9763;48.780;9.212;2022-10-26T12:56:03;24.50;88.70
19258;DHT22;9763;48.780;9.212;2022-10-26T12:59:36;24.50;88.10
19258;DHT22;9763;48.780;9.212;2022-10-26T13:03:16;24.40;90.00
19258;DHT22;9763;48.780;9.212;2022-10-26T13:07:08;24.30;89.50
19258;DHT22;9763;48.780;9.212;2022-10-26T13:10:58;24.30;89.40
19258;DHT22;9763;48.780;9.212;2022-10-26T13:14:26;24.20;90.10
19258;DHT22;9763;48.780;9.212;2022-10-26T13:18:07;24.20;91.00
19258;DHT22;9763;48.780;9.212;2022-10-26T13:21:44;24.20;90.20
19258;DHT22;9763;48.780;9.212;2022-10-26T13:25:21;24.20;90.20
19258;DHT22;9763;48.780;9.212;2022-10-26T13:28:49;24.20;90.10
19258;DHT22;9763;48.780;9.212;2022-10-26T13:32:15;24.20;90.40
19258;DHT22;9763;48.780;9.212;2022-10-26T13:35:40;24.20;89.10
19258;DHT22;9763;48.780;9.212;2022-10-26T13:39:11;24.20;88.90
19258;DHT22;9763;48.780;9.212;2022-10-26T13:42:44;24.20;86.50
19258;DHT22;9763;48.780;9.212;2022-10-26T13:46:26;24.10;87.30
19258;DHT22;9763;48.780;9.212;2022-10-26T13:49:52;24.00;85.80
19258;DHT22;9763;48.780;9.212;2022-10-26T13:53:23;24.00;85.90
19258;DHT22;9763;48.780;9.212;2022-10-26T13:57:08;23.90;87.20
19258;DHT22;9763;48.780;9.212;2022-10-26T14:00:37;23.80;86.40
19258;DHT22;9763;48.780;9.212;2022-10-26T14:04:13;23.70;87.50
19258;DHT22;9763;48.780;9.212;2022-10-26T14:07:41;23.60;86.60
19258;DHT22;9763;48.780;9.212;2022-10-26T14:11:11;23.60;88.20
19258;DHT22;9763;48.780;9.212;2022-10-26T14:14:37;23.60;88.90
19258;DHT22;9763;48.780;9.212;2022-10-26T14:18:04;23.50;89.80
19258;DHT22;9763;48.780;9.212;2022-10-26T14:21:27;23.50;89.40
19258;DHT22;9763;48.780;9.212;2022-10-26T14:24:53;23.50;90.50
19258;DHT22;9763;48.780;9.212;2022-10-26T14:28:23;23.50;90.10
19258;DHT22;9763;48.780;9.212;2022-10-26T14:31:50;23.50;89.60
19258;DHT22;9763;48.780;9.212;2022-10-26T14:35:18;23.50;90.60
19258;DHT22;9763;48.780;9.212;2022-10-26T14:38:46;23.50;90.50
19258;DHT22;9763;48.780;9.212;2022-10-26T14:42:22;23.50;90.70
19258;DHT22;9763;48.780;9.212;2022-10-26T14:45:51;23.50;89.20
19258;DHT22;9763;48.780;9.212;2022-10-26T14:49:19;23.50;90.40
19258;DHT22;9763;48.780;9.212;2022-10-26T14:52:49;23.50;90.50
19258;DHT22;9763;48.780;9.212;2022-10-26T14:56:21;23.50;90.40
19258;DHT22;9763;48.780;9.212;2022-10-26T14:59:59;23.50;89.10
19258;DHT22;9763;48.780;9.212;2022-10-26T15:03:23;23.40;87.90
19258;DHT22;9763;48.780;9.212;2022-10-26T15:06:47;23.40;90.00
19258;DHT22;9763;48.780;9.212;2022-10-26T15:10:45;23.40;90.10
19258;DHT22;9763;48.780;9.212;2022-10-26T15:14:12;23.30;87.40
19258;DHT22;9763;48.780;9.212;2022-10-26T15:17:48;23.30;90.00
19258;DHT22;9763;48.780;9.212;2022-10-26T15:21:23;23.30;89.40
19258;DHT22;9763;48.780;9.212;2022-10-26T15:24:50;23.20;89.20
19258;DHT22;9763;48.780;9.212;2022-10-26T15:28:22;23.20;90.20
19258;DHT22;9763;48.780;9.212;2022-10-26T15:31:58;23.20;89.10
19258;DHT22;9763;48.780;9.212;2022-10-26T15:35:26;23.10;87.80
19258;DHT22;9763;48.780;9.212;2022-10-26T15:38:52;23.10;88.80
19258;DHT22;9763;48.780;9.212;2022-10-26T15:42:21;23.00;88.70
19258;DHT22;9763;48.780;9.212;2022-10-26T15:45:46;22.80;88.20
19258;DHT22;9763;48.780;9.212;2022-10-26T15:49:16;22.70;87.60
19258;DHT22;9763;48.780;9.212;2022-10-26T15:52:40;22.60;87.40
19258;DHT22;9763;48.780;9.212;2022-10-26T15:56:13;22.40;87.50
19258;DHT22;9763;48.780;9.212;2022-10-26T15:59:39;23.60;88.00
19258;DHT22;9763;48.780;9.212;2022-10-26T16:03:04;22.10;87.20
19258;DHT22;9763;48.780;9.212;2022-10-26T16:06:29;22.00;86.80
19258;DHT22;9763;48.780;9.212;2022-10-26T16:09:55;21.80;86.80
19258;DHT22;9763;48.780;9.212;2022-10-26T16:13:19;21.70;86.90
19258;DHT22;9763;48.780;9.212;2022-10-26T16:16:42;21.50;86.70
19258;DHT22;9763;48.780;9.212;2022-10-26T16:20:12;21.40;86.50
19258;DHT22;9763;48.780;9.212;2022-10-26T16:23:37;21.20;85.90
19258;DHT22;9763;48.780;9.212;2022-10-26T16:27:01;21.10;87.00
19258;DHT22;9763;48.780;9.212;2022-10-26T16:30:25;20.90;87.10
19258;DHT22;9763;48.780;9.212;2022-10-26T16:33:52;20.80;87.30
19258;DHT22;9763;48.780;9.212;2022-10-26T16:37:16;20.60;87.60
19258;DHT22;9763;48.780;9.212;2022-10-26T16:40:41;20.50;87.60
19258;DHT22;9763;48.780;9.212;2022-10-26T16:44:06;20.50;88.20
19258;DHT22;9763;48.780;9.212;2022-10-26T16:47:31;20.30;87.90
19258;DHT22;9763;48.780;9.212;2022-10-26T16:51:04;20.30;88.20
19258;DHT22;9763;48.780;9.212;2022-10-26T16:54:30;20.20;87.50
19258;DHT22;9763;48.780;9.212;2022-10-26T16:57:53;20.10;88.30
19258;DHT22;9763;48.780;9.212;2022-10-26T17:01:18;20.10;89.00
19258;DHT22;9763;48.780;9.212;2022-10-26T17:04:43;19.90;88.40
19258;DHT22;9763;48.780;9.212;2022-10-26T17:08:06;19.90;88.50
19258;DHT22;9763;48.780;9.212;2022-10-26T17:11:31;19.80;88.80
19258;DHT22;9763;48.780;9.212;2022-10-26T17:14:55;19.80;88.40
19258;DHT22;9763;48.780;9.212;2022-10-26T17:18:19;19.70;88.90
19258;DHT22;9763;48.780;9.212;2022-10-26T17:21:43;19.70;89.30
19258;DHT22;9763;48.780;9.212;2022-10-26T17:25:07;19.60;89.40
19258;DHT22;9763;48.780;9.212;2022-10-26T17:28:32;19.60;89.50
19258;DHT22;9763;48.780;9.212;2022-10-26T17:31:56;19.50;89.30
19258;DHT22;9763;48.780;9.212;2022-10-26T17:35:20;19.50;89.40
19258;DHT22;9763;48.780;9.212;2022-10-26T17:38:44;19.50;89.40
19258;DHT22;9763;48.780;9.212;2022-10-26T17:42:08;19.40;89.30
19258;DHT22;9763;48.780;9.212;2022-10-26T17:45:32;19.40;89.20
19258;DHT22;9763;48.780;9.212;2022-10-26T17:48:57;19.30;88.60
19258;DHT22;9763;48.780;9.212;2022-10-26T17:52:22;19.30;88.50
19258;DHT22;9763;48.780;9.212;2022-10-26T17:55:46;19.20;88.40
19258;DHT22;9763;48.780;9.212;2022-10-26T17:59:11;19.10;88.70
19258;DHT22;9763;48.780;9.212;2022-10-26T18:02:36;19.00;88.90
19258;DHT22;9763;48.780;9.212;2022-10-26T18:06:01;19.00;88.90
19258;DHT22;9763;48.780;9.212;2022-10-26T18:09:25;19.00;89.30
19258;DHT22;9763;48.780;9.212;2022-10-26T18:12:49;18.90;89.40
19258;DHT22;9763;48.780;9.212;2022-10-26T18:16:15;18.90;89.20
19258;DHT22;9763;48.780;9.212;2022-10-26T18:19:41;18.80;89.30
19258;DHT22;9763;48.780;9.212;2022-10-26T18:23:05;18.80;89.30
19258;DHT22;9763;48.780;9.212;2022-10-26T18:26:29;18.70;89.80
19258;DHT22;9763;48.780;9.212;2022-10-26T18:29:53;18.70;90.00
19258;DHT22;9763;48.780;9.212;2022-10-26T18:33:16;18.70;90.00
19258;DHT22;9763;48.780;9.212;2022-10-26T18:36:41;18.70;89.70
19258;DHT22;9763;48.780;9.212;2022-10-26T18:40:06;18.70;89.40
19258;DHT22;9763;48.780;9.212;2022-10-26T18:43:30;18.60;89.20
19258;DHT22;9763;48.780;9.212;2022-10-26T18:46:54;18.60;89.40
19258;DHT22;9763;48.780;9.212;2022-10-26T18:50:18;18.60;89.50
19258;DHT22;9763;48.780;9.212;2022-10-26T18:53:44;18.70;89.50
19258;DHT22;9763;48.780;9.212;2022-10-26T18:57:08;18.50;89.00
19258;DHT22;9763;48.780;9.212;2022-10-26T19:00:31;18.50;89.00
19258;DHT22;9763;48.780;9.212;2022-10-26T19:03:56;18.50;88.70
19258;DHT22;9763;48.780;9.212;2022-10-26T19:07:21;18.40;88.80
19258;DHT22;9763;48.780;9.212;2022-10-26T19:10:46;18.40;89.20
19258;DHT22;9763;48.780;9.212;2022-10-26T19:14:11;18.30;89.00
19258;DHT22;9763;48.780;9.212;2022-10-26T19:17:34;18.30;89.20
19258;DHT22;9763;48.780;9.212;2022-10-26T19:20:58;18.30;89.10
19258;DHT22;9763;48.780;9.212;2022-10-26T19:24:23;18.30;88.90
19258;DHT22;9763;48.780;9.212;2022-10-26T19:27:47;18.30;88.80
19258;DHT22;9763;48.780;9.212;2022-10-26T19:31:14;18.70;88.90
19258;DHT22;9763;48.780;9.212;2022-10-26T19:34:38;18.20;88.60
19258;DHT22;9763;48.780;9.212;2022-10-26T19:38:01;18.10;89.10
19258;DHT22;9763;48.780;9.212;2022-10-26T19:41:25;18.10;89.30
19258;DHT22;9763;48.780;9.212;2022-10-26T19:44:50;18.00;89.30
19258;DHT22;9763;48.780;9.212;2022-10-26T19:48:14;18.00;89.20
19258;DHT22;9763;48.780;9.212;2022-10-26T19:51:37;18.00;89.10
19258;DHT22;9763;48.780;9.212;2022-10-26T19:55:01;17.90;88.90
19258;DHT22;9763;48.780;9.212;2022-10-26T19:58:25;17.90;89.20
19258;DHT22;9763;48.780;9.212;2022-10-26T20:01:51;17.80;89.70
19258;DHT22;9763;48.780;9.212;2022-10-26T20:05:15;17.80;89.80
19258;DHT22;9763;48.780;9.212;2022-10-26T20:08:39;17.70;89.70
19258;DHT22;9763;48.780;9.212;2022-10-26T20:12:05;17.70;89.40
19258;DHT22;9763;48.780;9.212;2022-10-26T20:15:33;17.70;89.30
19258;DHT22;9763;48.780;9.212;2022-10-26T20:19:00;17.70;89.00
19258;DHT22;9763;48.780;9.212;2022-10-26T20:22:24;17.70;88.70
19258;DHT22;9763;48.780;9.212;2022-10-26T20:25:48;17.70;88.80
19258;DHT22;9763;48.780;9.212;2022-10-26T20:29:13;17.60;88.50
19258;DHT22;9763;48.780;9.212;2022-10-26T20:32:37;17.60;88.50
19258;DHT22;9763;48.780;9.212;2022-10-26T20:36:02;17.60;89.10
19258;DHT22;9763;48.780;9.212;2022-10-26T20:39:26;17.50;88.30
19258;DHT22;9763;48.780;9.212;2022-10-26T20:42:50;17.50;88.70
19258;DHT22;9763;48.780;9.212;2022-10-26T20:46:20;17.50;88.50
19258;DHT22;9763;48.780;9.212;2022-10-26T20:49:45;17.40;88.30
19258;DHT22;9763;48.780;9.212;2022-10-26T20:53:18;17.40;89.50
19258;DHT22;9763;48.780;9.212;2022-10-26T20:56:49;17.50;89.60
19258;DHT22;9763;48.780;9.212;2022-10-26T21:00:14;17.40;90.10
19258;DHT22;9763;48.780;9.212;2022-10-26T21:03:38;17.40;90.10
19258;DHT22;9763;48.780;9.212;2022-10-26T21:07:01;17.30;90.00
19258;DHT22;9763;48.780;9.212;2022-10-26T21:10:28;17.40;90.00
19258;DHT22;9763;48.780;9.212;2022-10-26T21:13:53;17.30;89.50
19258;DHT22;9763;48.780;9.212;2022-10-26T21:17:17;17.30;89.70
19258;DHT22;9763;48.780;9.212;2022-10-26T21:20:41;17.30;89.80
19258;DHT22;9763;48.780;9.212;2022-10-26T21:24:05;17.30;89.50
19258;DHT22;9763;48.780;9.212;2022-10-26T21:27:30;17.20;89.40
19258;DHT22;9763;48.780;9.212;2022-10-26T21:30:54;17.30;89.30
19258;DHT22;9763;48.780;9.212;2022-10-26T21:34:17;17.20;89.20
19258;DHT22;9763;48.780;9.212;2022-10-26T21:37:41;17.20;88.90
19258;DHT22;9763;48.780;9.212;2022-10-26T21:41:06;17.20;88.90
19258;DHT22;9763;48.780;9.212;2022-10-26T21:44:32;17.20;88.70
19258;DHT22;9763;48.780;9.212;2022-10-26T21:48:03;17.20;88.70
19258;DHT22;9763;48.780;9.212;2022-10-26T21:51:27;17.20;88.60
19258;DHT22;9763;48.780;9.212;2022-10-26T21:54:50;17.10;88.50
19258;DHT22;9763;48.780;9.212;2022-10-26T21:58:15;17.10;88.60
19258;DHT22;9763;48.780;9.212;2022-10-26T22:01:40;17.10;88.60
19258;DHT22;9763;48.780;9.212;2022-10-26T22:05:05;17.00;88.90
19258;DHT22;9763;48.780;9.212;2022-10-26T22:08:29;17.20;88.60
19258;DHT22;9763;48.780;9.212;2022-10-26T22:11:52;16.90;88.40
19258;DHT22;9763;48.780;9.212;2022-10-26T22:15:16;17.10;89.00